createdAt,value
2016-11-29T00:00:05.369Z,920.91
2016-11-29T00:00:34.060Z,920.92
2016-11-29T00:01:02.988Z,920.94
2016-11-29T00:01:31.062Z,920.93
2016-11-29T00:01:59.914Z,920.93
2016-11-29T00:02:27.993Z,920.93
2016-11-29T00:02:56.001Z,920.95
2016-11-29T00:03:24.073Z,920.94
2016-11-29T00:03:52.148Z,920.91
2016-11-29T00:04:22.559Z,920.93
2016-11-29T00:04:50.629Z,920.96
2016-11-29T00:05:19.221Z,920.94
2016-11-29T00:05:48.000Z,920.97
2016-11-29T00:06:18.568Z,920.95
2016-11-29T00:06:47.232Z,920.99
2016-11-29T00:07:15.228Z,921.02
2016-11-29T00:07:44.861Z,921
2016-11-29T00:08:12.939Z,920.99
2016-11-29T00:08:40.919Z,921.07
2016-11-29T00:09:09.688Z,921.07
2016-11-29T00:09:37.579Z,921.02
2016-11-29T00:10:05.387Z,921.04
2016-11-29T00:10:33.290Z,921.05
2016-11-29T00:11:03.617Z,921.1
2016-11-29T00:11:32.285Z,921.07
2016-11-29T00:12:00.362Z,921.1
2016-11-29T00:12:29.025Z,921.1
2016-11-29T00:12:57.703Z,921.07
2016-11-29T00:13:25.770Z,921.13
2016-11-29T00:13:53.745Z,921.11
2016-11-29T00:14:21.640Z,921.11
2016-11-29T00:14:49.621Z,921.11
2016-11-29T00:15:17.600Z,921.09
2016-11-29T00:15:47.052Z,921.12
2016-11-29T00:16:16.584Z,921.17
2016-11-29T00:16:44.589Z,921.09
2016-11-29T00:17:13.449Z,921.14
2016-11-29T00:17:41.431Z,921.12
2016-11-29T00:18:09.917Z,921.14
2016-11-29T00:18:39.546Z,921.13
2016-11-29T00:19:07.617Z,921.09
2016-11-29T00:19:36.384Z,921.17
2016-11-29T00:20:04.374Z,921.15
2016-11-29T00:20:32.355Z,921.16
2016-11-29T00:21:00.443Z,921.15
2016-11-29T00:21:29.992Z,921.15
2016-11-29T00:22:00.215Z,921.15
2016-11-29T00:22:28.097Z,921.15
2016-11-29T00:22:57.641Z,921.16
2016-11-29T00:23:26.505Z,921.17
2016-11-29T00:23:55.357Z,921.13
2016-11-29T00:24:23.347Z,921.17
2016-11-29T00:24:51.151Z,921.14
2016-11-29T00:25:19.042Z,921.18
2016-11-29T00:25:47.811Z,921.24
2016-11-29T00:26:15.801Z,921.18
2016-11-29T00:26:44.646Z,921.24
2016-11-29T00:27:13.501Z,921.23
2016-11-29T00:27:42.261Z,921.21
2016-11-29T00:28:10.184Z,921.21
2016-11-29T00:28:41.264Z,921.25
2016-11-29T00:29:10.109Z,921.28
2016-11-29T00:29:38.973Z,921.3
2016-11-29T00:30:06.866Z,921.27
2016-11-29T00:30:38.966Z,921.25
2016-11-29T00:31:06.854Z,921.28
2016-11-29T00:31:36.382Z,921.27
2016-11-29T00:32:04.455Z,921.26
2016-11-29T00:32:33.302Z,921.3
2016-11-29T00:33:01.288Z,921.26
2016-11-29T00:33:29.358Z,921.29
2016-11-29T00:33:59.773Z,921.27
2016-11-29T00:34:27.848Z,921.27
2016-11-29T00:34:55.831Z,921.27
2016-11-29T00:35:24.679Z,921.3
2016-11-29T00:35:53.551Z,921.29
2016-11-29T00:36:23.096Z,921.29
2016-11-29T00:36:51.666Z,921.28
2016-11-29T00:37:19.744Z,921.27
2016-11-29T00:37:49.280Z,921.3
2016-11-29T00:38:17.267Z,921.27
2016-11-29T00:39:23.577Z,921.28
2016-11-29T00:39:52.428Z,921.3
2016-11-29T00:40:22.070Z,921.29
2016-11-29T00:40:49.875Z,921.31
2016-11-29T00:41:17.849Z,921.31
2016-11-29T00:41:45.743Z,921.32
2016-11-29T00:42:13.827Z,921.32
2016-11-29T00:42:43.463Z,921.33
2016-11-29T00:43:13.677Z,921.35
2016-11-29T00:43:42.434Z,921.35
2016-11-29T00:44:10.433Z,921.38
2016-11-29T00:44:39.382Z,921.36
2016-11-29T00:45:08.233Z,921.39
2016-11-29T00:45:37.688Z,921.4
2016-11-29T00:46:07.257Z,921.42
2016-11-29T00:46:35.336Z,921.43
2016-11-29T00:47:03.331Z,921.42
2016-11-29T00:47:32.094Z,921.44
2016-11-29T00:48:00.074Z,921.45
2016-11-29T00:48:29.707Z,921.42
2016-11-29T00:48:57.705Z,921.41
2016-11-29T00:49:25.595Z,921.42
2016-11-29T00:49:53.570Z,921.37
2016-11-29T00:50:21.464Z,921.38
2016-11-29T00:50:50.512Z,921.39
2016-11-29T00:51:20.036Z,921.38
2016-11-29T00:51:48.018Z,921.39
2016-11-29T00:52:16.089Z,921.37
2016-11-29T00:52:44.768Z,921.36
2016-11-29T00:53:12.843Z,921.35
2016-11-29T00:53:40.815Z,921.36
2016-11-29T00:54:08.887Z,921.36
2016-11-29T00:54:37.740Z,921.35
2016-11-29T00:55:06.413Z,921.37
2016-11-29T00:55:34.416Z,921.33
2016-11-29T00:56:02.386Z,921.33
2016-11-29T00:56:31.241Z,921.41
2016-11-29T00:57:00.880Z,921.35
2016-11-29T00:57:29.637Z,921.35
2016-11-29T00:57:58.302Z,921.41
2016-11-29T00:58:27.054Z,921.43
2016-11-29T00:58:55.925Z,921.39
2016-11-29T00:59:24.780Z,921.4
2016-11-29T00:59:52.851Z,921.41
2016-11-29T01:00:20.839Z,921.42
2016-11-29T01:00:50.465Z,921.41
2016-11-29T01:01:18.536Z,921.39
2016-11-29T01:01:47.213Z,921.43
2016-11-29T01:02:16.062Z,921.43
2016-11-29T01:02:43.972Z,921.42
2016-11-29T01:03:11.965Z,921.42
2016-11-29T01:03:39.934Z,921.41
2016-11-29T01:04:08.004Z,921.42
2016-11-29T01:04:35.905Z,921.42
2016-11-29T01:05:04.680Z,921.42
2016-11-29T01:05:33.511Z,921.4
2016-11-29T01:06:01.802Z,921.4
2016-11-29T01:06:29.869Z,921.42
2016-11-29T01:06:58.722Z,921.45
2016-11-29T01:07:26.693Z,921.48
2016-11-29T01:07:54.783Z,921.45
2016-11-29T01:08:22.778Z,921.47
2016-11-29T01:08:50.477Z,921.45
2016-11-29T01:09:19.240Z,921.47
2016-11-29T01:09:47.307Z,921.52
2016-11-29T01:10:15.113Z,921.51
2016-11-29T01:10:43.177Z,921.5
2016-11-29T01:11:11.147Z,921.51
2016-11-29T01:11:39.996Z,921.52
2016-11-29T01:12:08.857Z,921.51
2016-11-29T01:12:36.837Z,921.55
2016-11-29T01:13:04.724Z,921.51
2016-11-29T01:13:32.785Z,921.52
2016-11-29T01:14:00.862Z,921.51
2016-11-29T01:14:28.860Z,921.51
2016-11-29T01:14:57.608Z,921.51
2016-11-29T01:15:27.250Z,921.55
2016-11-29T01:15:56.103Z,921.52
2016-11-29T01:16:25.651Z,921.53
2016-11-29T01:16:55.464Z,921.52
2016-11-29T01:17:25.000Z,921.53
2016-11-29T01:17:52.990Z,921.55
2016-11-29T01:18:59.259Z,921.57
2016-11-29T01:19:28.114Z,921.6
2016-11-29T01:19:56.986Z,921.6
2016-11-29T01:20:26.625Z,921.59
2016-11-29T01:20:55.497Z,921.57
2016-11-29T01:21:24.272Z,921.57
2016-11-29T01:21:52.256Z,921.57
2016-11-29T01:22:21.020Z,921.58
2016-11-29T01:22:50.731Z,921.59
2016-11-29T01:23:19.487Z,921.6
2016-11-29T01:23:47.473Z,921.61
2016-11-29T01:24:15.356Z,921.6
2016-11-29T01:24:44.215Z,921.61
2016-11-29T01:25:12.994Z,921.65
2016-11-29T01:25:42.350Z,921.63
2016-11-29T01:26:11.207Z,921.62
2016-11-29T01:26:40.762Z,921.62
2016-11-29T01:27:09.520Z,921.65
2016-11-29T01:27:38.188Z,921.61
2016-11-29T01:28:06.949Z,921.61
2016-11-29T01:28:36.581Z,921.63
2016-11-29T01:29:04.657Z,921.66
2016-11-29T01:29:32.536Z,921.65
2016-11-29T01:30:00.355Z,921.66
2016-11-29T01:30:28.340Z,921.64
2016-11-29T01:30:57.091Z,921.66
2016-11-29T01:31:25.080Z,921.67
2016-11-29T01:31:54.702Z,921.67
2016-11-29T01:32:24.337Z,921.66
2016-11-29T01:32:52.317Z,921.65
2016-11-29T01:33:20.990Z,921.67
2016-11-29T01:33:49.659Z,921.68
2016-11-29T01:34:18.512Z,921.64
2016-11-29T01:34:46.575Z,921.66
2016-11-29T01:35:16.115Z,921.67
2016-11-29T01:35:44.864Z,921.66
2016-11-29T01:36:13.722Z,921.68
2016-11-29T01:36:41.621Z,921.63
2016-11-29T01:37:10.285Z,921.65
2016-11-29T01:37:38.268Z,921.63
2016-11-29T01:38:06.333Z,921.62
2016-11-29T01:38:34.429Z,921.62
2016-11-29T01:39:02.301Z,921.61
2016-11-29T01:39:30.437Z,921.61
2016-11-29T01:39:58.504Z,921.61
2016-11-29T01:40:26.570Z,921.64
2016-11-29T01:40:55.431Z,921.6
2016-11-29T01:41:23.499Z,921.61
2016-11-29T01:41:53.034Z,921.61
2016-11-29T01:42:20.940Z,921.59
2016-11-29T01:42:50.565Z,921.56
2016-11-29T01:43:20.190Z,921.53
2016-11-29T01:43:48.165Z,921.53
2016-11-29T01:44:16.245Z,921.55
2016-11-29T01:44:44.220Z,921.55
2016-11-29T01:45:13.077Z,921.53
2016-11-29T01:45:41.839Z,921.55
2016-11-29T01:46:10.700Z,921.5
2016-11-29T01:46:38.889Z,921.5
2016-11-29T01:47:06.769Z,921.48
2016-11-29T01:47:35.622Z,921.5
2016-11-29T01:48:05.266Z,921.47
2016-11-29T01:48:34.892Z,921.48
2016-11-29T01:49:03.664Z,921.49
2016-11-29T01:49:31.643Z,921.48
2016-11-29T01:50:00.408Z,921.49
2016-11-29T01:50:30.040Z,921.48
2016-11-29T01:50:58.120Z,921.51
2016-11-29T01:51:26.967Z,921.5
2016-11-29T01:51:54.952Z,921.49
2016-11-29T01:52:23.020Z,921.49
2016-11-29T01:52:51.089Z,921.48
2016-11-29T01:53:19.061Z,921.49
2016-11-29T01:53:47.055Z,921.45
2016-11-29T01:54:15.037Z,921.49
2016-11-29T01:54:43.163Z,921.5
2016-11-29T01:55:11.156Z,921.47
2016-11-29T01:55:39.230Z,921.48
2016-11-29T01:56:07.126Z,921.49
2016-11-29T01:56:35.114Z,921.47
2016-11-29T01:57:03.087Z,921.46
2016-11-29T01:57:31.942Z,921.46
2016-11-29T01:58:38.301Z,921.46
2016-11-29T01:59:06.282Z,921.46
2016-11-29T01:59:35.823Z,921.47
2016-11-29T02:00:04.515Z,921.49
2016-11-29T02:00:32.501Z,921.47
2016-11-29T02:01:01.277Z,921.44
2016-11-29T02:01:29.363Z,921.48
2016-11-29T02:01:57.354Z,921.44
2016-11-29T02:02:25.236Z,921.46
2016-11-29T02:02:53.217Z,921.47
2016-11-29T02:03:21.285Z,921.46
2016-11-29T02:03:49.351Z,921.47
2016-11-29T02:04:17.330Z,921.45
2016-11-29T02:04:46.005Z,921.47
2016-11-29T02:05:14.671Z,921.49
2016-11-29T02:05:43.431Z,921.46
2016-11-29T02:06:11.523Z,921.47
2016-11-29T02:06:40.308Z,921.46
2016-11-29T02:07:09.839Z,921.44
2016-11-29T02:07:38.699Z,921.46
2016-11-29T02:08:06.597Z,921.44
2016-11-29T02:08:34.580Z,921.43
2016-11-29T02:09:03.250Z,921.46
2016-11-29T02:09:32.257Z,921.4
2016-11-29T02:10:00.059Z,921.38
2016-11-29T02:10:29.581Z,921.39
2016-11-29T02:10:59.899Z,921.36
2016-11-29T02:11:27.971Z,921.38
2016-11-29T02:11:56.831Z,921.33
2016-11-29T02:12:27.063Z,921.35
2016-11-29T02:12:55.035Z,921.35
2016-11-29T02:13:22.931Z,921.32
2016-11-29T02:13:50.997Z,921.32
2016-11-29T02:14:18.966Z,921.31
2016-11-29T02:14:47.734Z,921.27
2016-11-29T02:15:16.487Z,921.25
2016-11-29T02:15:44.385Z,921.25
2016-11-29T02:16:12.470Z,921.23
2016-11-29T02:16:40.359Z,921.21
2016-11-29T02:17:08.246Z,921.2
2016-11-29T02:17:36.229Z,921.13
2016-11-29T02:18:04.026Z,921.18
2016-11-29T02:18:31.917Z,921.13
2016-11-29T02:18:59.987Z,921.14
2016-11-29T02:19:28.749Z,921.1
2016-11-29T02:19:57.594Z,921.1
2016-11-29T02:20:25.678Z,921.08
2016-11-29T02:20:53.649Z,921.09
2016-11-29T02:21:21.624Z,921.08
2016-11-29T02:21:50.490Z,921.1
2016-11-29T02:22:19.071Z,921.01
2016-11-29T02:22:47.735Z,921.01
2016-11-29T02:23:15.714Z,921.02
2016-11-29T02:23:43.798Z,921.03
2016-11-29T02:24:12.648Z,921.01
2016-11-29T02:24:41.503Z,921.01
2016-11-29T02:25:10.351Z,921.03
2016-11-29T02:25:39.005Z,920.96
2016-11-29T02:26:08.631Z,920.95
2016-11-29T02:26:36.695Z,920.97
2016-11-29T02:27:06.323Z,920.98
2016-11-29T02:27:34.408Z,920.92
2016-11-29T02:28:03.845Z,920.95
2016-11-29T02:28:32.707Z,921
2016-11-29T02:29:00.610Z,920.94
2016-11-29T02:29:30.298Z,920.9
2016-11-29T02:29:58.126Z,920.94
2016-11-29T02:30:26.889Z,920.94
2016-11-29T02:30:54.876Z,920.94
2016-11-29T02:31:22.960Z,920.91
2016-11-29T02:31:50.940Z,920.9
2016-11-29T02:32:19.791Z,920.91
2016-11-29T02:32:47.860Z,920.89
2016-11-29T02:33:17.405Z,920.81
2016-11-29T02:33:45.484Z,920.88
2016-11-29T02:34:14.240Z,920.83
2016-11-29T02:34:42.053Z,920.83
2016-11-29T02:35:10.719Z,920.8
2016-11-29T02:35:38.792Z,920.8
2016-11-29T02:36:08.240Z,920.77
2016-11-29T02:36:38.636Z,920.75
2016-11-29T02:37:06.725Z,920.73
2016-11-29T02:38:13.078Z,920.73
2016-11-29T02:38:41.142Z,920.73
2016-11-29T02:39:09.912Z,920.72
2016-11-29T02:39:38.686Z,920.74
2016-11-29T02:40:06.587Z,920.73
2016-11-29T02:40:35.440Z,920.76
2016-11-29T02:41:03.521Z,920.73
2016-11-29T02:41:31.505Z,920.71
2016-11-29T02:42:01.136Z,920.76
2016-11-29T02:42:29.120Z,920.77
2016-11-29T02:42:57.884Z,920.72
2016-11-29T02:43:26.725Z,920.74
2016-11-29T02:43:54.796Z,920.75
2016-11-29T02:44:22.873Z,920.73
2016-11-29T02:44:50.998Z,920.73
2016-11-29T02:45:19.853Z,920.72
2016-11-29T02:45:47.841Z,920.74
2016-11-29T02:46:15.820Z,920.73
2016-11-29T02:46:44.680Z,920.72
2016-11-29T02:47:12.653Z,920.74
2016-11-29T02:47:41.422Z,920.73
2016-11-29T02:48:09.507Z,920.73
2016-11-29T02:48:37.386Z,920.75
2016-11-29T02:49:05.376Z,920.72
2016-11-29T02:49:33.363Z,920.71
2016-11-29T02:50:01.425Z,920.76
2016-11-29T02:50:29.521Z,920.74
2016-11-29T02:50:58.284Z,920.78
2016-11-29T02:51:26.355Z,920.76
2016-11-29T02:51:55.123Z,920.76
2016-11-29T02:52:23.103Z,920.74
2016-11-29T02:52:51.084Z,920.77
2016-11-29T02:53:20.640Z,920.77
2016-11-29T02:53:51.655Z,920.75
2016-11-29T02:54:19.642Z,920.76
2016-11-29T02:54:49.272Z,920.74
2016-11-29T02:55:21.235Z,920.73
2016-11-29T02:55:49.229Z,920.72
2016-11-29T02:56:18.763Z,920.68
2016-11-29T02:56:46.837Z,920.71
2016-11-29T02:57:15.592Z,920.68
2016-11-29T02:57:43.487Z,920.67
2016-11-29T02:58:11.557Z,920.66
2016-11-29T02:58:41.186Z,920.68
2016-11-29T02:59:10.039Z,920.67
2016-11-29T02:59:38.100Z,920.67
2016-11-29T03:00:06.175Z,920.67
2016-11-29T03:00:34.240Z,920.66
2016-11-29T03:01:03.870Z,920.7
2016-11-29T03:01:31.872Z,920.66
2016-11-29T03:01:59.669Z,920.63
2016-11-29T03:02:27.553Z,920.69
2016-11-29T03:02:57.188Z,920.7
2016-11-29T03:03:26.737Z,920.68
2016-11-29T03:03:54.613Z,920.7
2016-11-29T03:04:22.415Z,920.69
2016-11-29T03:04:51.232Z,920.65
2016-11-29T03:05:20.679Z,920.67
2016-11-29T03:05:48.654Z,920.64
2016-11-29T03:06:17.403Z,920.66
2016-11-29T03:06:46.263Z,920.64
2016-11-29T03:07:14.159Z,920.64
2016-11-29T03:07:42.131Z,920.61
2016-11-29T03:08:10.221Z,920.59
2016-11-29T03:08:38.271Z,920.61
2016-11-29T03:09:06.350Z,920.58
2016-11-29T03:09:34.236Z,920.56
2016-11-29T03:10:03.685Z,920.56
2016-11-29T03:10:32.533Z,920.55
2016-11-29T03:11:00.614Z,920.52
2016-11-29T03:11:29.371Z,920.52
2016-11-29T03:11:59.777Z,920.52
2016-11-29T03:12:27.751Z,920.5
2016-11-29T03:12:56.515Z,920.49
2016-11-29T03:13:24.597Z,920.45
2016-11-29T03:13:52.565Z,920.41
2016-11-29T03:14:20.643Z,920.43
2016-11-29T03:14:48.706Z,920.46
2016-11-29T03:15:16.595Z,920.44
2016-11-29T03:15:44.670Z,920.44
2016-11-29T03:16:13.425Z,920.41
2016-11-29T03:16:41.316Z,920.41
2016-11-29T03:17:47.671Z,920.42
2016-11-29T03:18:16.427Z,920.45
2016-11-29T03:18:45.191Z,920.41
2016-11-29T03:19:13.262Z,920.44
2016-11-29T03:19:41.148Z,920.42
2016-11-29T03:20:10.008Z,920.4
2016-11-29T03:20:38.000Z,920.42
2016-11-29T03:21:06.075Z,920.38
2016-11-29T03:21:34.142Z,920.41
2016-11-29T03:22:03.589Z,920.4
2016-11-29T03:22:31.657Z,920.34
2016-11-29T03:22:59.636Z,920.39
2016-11-29T03:23:28.403Z,920.37
2016-11-29T03:23:57.272Z,920.37
2016-11-29T03:24:25.938Z,920.35
2016-11-29T03:24:54.155Z,920.34
2016-11-29T03:25:23.796Z,920.35
2016-11-29T03:25:51.688Z,920.36
2016-11-29T03:26:20.350Z,920.35
2016-11-29T03:26:49.894Z,920.33
2016-11-29T03:27:18.745Z,920.31
2016-11-29T03:27:47.602Z,920.31
2016-11-29T03:28:16.355Z,920.29
2016-11-29T03:28:44.159Z,920.28
2016-11-29T03:29:13.795Z,920.27
2016-11-29T03:29:43.316Z,920.29
2016-11-29T03:30:11.117Z,920.3
2016-11-29T03:30:39.874Z,920.28
2016-11-29T03:31:07.951Z,920.25
2016-11-29T03:31:36.024Z,920.33
2016-11-29T03:32:03.996Z,920.29
2016-11-29T03:32:32.075Z,920.3
2016-11-29T03:33:01.701Z,920.28
2016-11-29T03:33:29.773Z,920.28
2016-11-29T03:33:57.763Z,920.24
2016-11-29T03:34:26.612Z,920.26
2016-11-29T03:34:54.699Z,920.24
2016-11-29T03:35:22.682Z,920.27
2016-11-29T03:35:51.531Z,920.2
2016-11-29T03:36:20.378Z,920.19
2016-11-29T03:36:48.448Z,920.19
2016-11-29T03:37:16.433Z,920.2
2016-11-29T03:37:44.414Z,920.19
2016-11-29T03:38:13.174Z,920.17
2016-11-29T03:38:42.800Z,920.11
2016-11-29T03:39:11.473Z,920.12
2016-11-29T03:39:39.634Z,920.16
2016-11-29T03:40:07.611Z,920.15
2016-11-29T03:40:35.671Z,920.16
2016-11-29T03:41:04.445Z,920.13
2016-11-29T03:41:32.335Z,920.14
2016-11-29T03:42:00.401Z,920.14
2016-11-29T03:42:28.377Z,920.15
2016-11-29T03:42:56.463Z,920.16
2016-11-29T03:43:25.903Z,920.17
2016-11-29T03:43:53.890Z,920.2
2016-11-29T03:44:22.553Z,920.15
2016-11-29T03:44:50.615Z,920.15
2016-11-29T03:45:21.008Z,920.16
2016-11-29T03:45:51.860Z,920.12
2016-11-29T03:46:19.850Z,920.16
2016-11-29T03:46:48.713Z,920.11
2016-11-29T03:47:16.594Z,920.11
2016-11-29T03:47:45.360Z,920.15
2016-11-29T03:48:14.025Z,920.08
2016-11-29T03:48:42.884Z,920.13
2016-11-29T03:49:11.663Z,920.12
2016-11-29T03:49:39.623Z,920.16
2016-11-29T03:50:07.604Z,920.14
2016-11-29T03:50:36.465Z,920.17
2016-11-29T03:51:04.531Z,920.18
2016-11-29T03:51:32.509Z,920.15
2016-11-29T03:52:00.569Z,920.15
2016-11-29T03:52:28.551Z,920.15
2016-11-29T03:52:57.406Z,920.15
2016-11-29T03:53:25.379Z,920.15
2016-11-29T03:53:54.239Z,920.11
2016-11-29T03:54:22.908Z,920.12
2016-11-29T03:54:51.081Z,920.09
2016-11-29T03:55:18.881Z,920.05
2016-11-29T03:55:46.855Z,920.05
2016-11-29T03:56:14.781Z,920.05
2016-11-29T03:57:21.131Z,920.05
2016-11-29T03:57:49.973Z,920.06
2016-11-29T03:58:19.609Z,920.05
2016-11-29T03:58:47.597Z,920.09
2016-11-29T03:59:16.457Z,920.06
2016-11-29T03:59:44.437Z,920.08
2016-11-29T04:00:12.422Z,920.08
2016-11-29T04:00:40.492Z,920.1
2016-11-29T04:01:09.249Z,920.12
2016-11-29T04:01:38.876Z,920.12
2016-11-29T04:02:07.550Z,920.13
2016-11-29T04:02:35.528Z,920.15
2016-11-29T04:03:03.595Z,920.13
2016-11-29T04:03:31.491Z,920.15
2016-11-29T04:03:59.466Z,920.19
2016-11-29T04:04:28.313Z,920.19
2016-11-29T04:04:56.526Z,920.18
2016-11-29T04:05:26.057Z,920.25
2016-11-29T04:05:54.037Z,920.21
2016-11-29T04:06:24.432Z,920.25
2016-11-29T04:06:52.503Z,920.29
2016-11-29T04:07:21.264Z,920.33
2016-11-29T04:07:50.894Z,920.25
2016-11-29T04:08:19.507Z,920.25
2016-11-29T04:08:47.485Z,920.28
2016-11-29T04:09:16.239Z,920.31
2016-11-29T04:09:45.240Z,920.29
2016-11-29T04:10:14.778Z,920.28
2016-11-29T04:10:42.855Z,920.27
2016-11-29T04:11:12.400Z,920.26
2016-11-29T04:11:41.153Z,920.21
2016-11-29T04:12:10.775Z,920.25
2016-11-29T04:12:38.746Z,920.25
2016-11-29T04:13:06.815Z,920.23
2016-11-29T04:13:35.679Z,920.26
2016-11-29T04:14:03.655Z,920.43
2016-11-29T04:14:31.732Z,920.25
2016-11-29T04:14:59.715Z,920.29
2016-11-29T04:15:29.344Z,920.25
2016-11-29T04:15:58.875Z,920.18
2016-11-29T04:16:26.861Z,920.22
2016-11-29T04:16:55.623Z,920.27
2016-11-29T04:17:23.511Z,920.2
2016-11-29T04:17:53.053Z,920.21
2016-11-29T04:18:21.128Z,920.22
2016-11-29T04:18:49.194Z,920.25
2016-11-29T04:19:17.175Z,920.15
2016-11-29T04:19:45.236Z,920.36
2016-11-29T04:20:13.566Z,920.21
2016-11-29T04:20:41.462Z,920.31
2016-11-29T04:21:09.355Z,920.29
2016-11-29T04:21:37.414Z,920.24
2016-11-29T04:22:05.391Z,920.3
2016-11-29T04:22:33.479Z,920.28
2016-11-29T04:23:02.261Z,920.24
2016-11-29T04:23:31.122Z,920.34
2016-11-29T04:23:59.964Z,920.32
2016-11-29T04:24:27.841Z,920.3
2016-11-29T04:24:57.711Z,920.26
2016-11-29T04:25:26.277Z,920.32
2016-11-29T04:25:55.908Z,920.34
2016-11-29T04:26:25.446Z,920.27
2016-11-29T04:26:53.415Z,920.29
2016-11-29T04:27:22.177Z,920.34
2016-11-29T04:27:50.249Z,920.26
2016-11-29T04:28:19.014Z,920.32
2016-11-29T04:28:47.072Z,920.37
2016-11-29T04:29:15.916Z,920.32
2016-11-29T04:29:44.764Z,920.34
2016-11-29T04:30:14.404Z,920.39
2016-11-29T04:30:42.395Z,920.26
2016-11-29T04:31:11.243Z,920.29
2016-11-29T04:31:39.313Z,920.46
2016-11-29T04:32:08.940Z,920.31
2016-11-29T04:32:38.580Z,920.42
2016-11-29T04:33:07.259Z,920.35
2016-11-29T04:33:36.019Z,920.37
2016-11-29T04:34:04.080Z,920.3
2016-11-29T04:34:32.845Z,920.29
2016-11-29T04:35:01.699Z,920.31
2016-11-29T04:35:30.459Z,920.32
2016-11-29T04:35:59.314Z,920.33
2016-11-29T04:37:05.484Z,920.34
2016-11-29T04:37:34.159Z,920.34
2016-11-29T04:38:02.926Z,920.39
2016-11-29T04:38:31.784Z,920.31
2016-11-29T04:39:00.634Z,920.3
2016-11-29T04:39:29.309Z,920.29
2016-11-29T04:39:57.371Z,920.31
2016-11-29T04:40:25.382Z,920.31
2016-11-29T04:40:53.360Z,920.31
2016-11-29T04:41:22.986Z,920.35
2016-11-29T04:41:51.838Z,920.38
2016-11-29T04:42:19.904Z,920.36
2016-11-29T04:42:47.787Z,920.35
2016-11-29T04:43:15.777Z,920.36
2016-11-29T04:43:44.622Z,920.33
2016-11-29T04:44:12.590Z,920.37
2016-11-29T04:44:41.460Z,920.4
2016-11-29T04:45:09.536Z,920.29
2016-11-29T04:45:38.388Z,920.43
2016-11-29T04:46:06.462Z,920.25
2016-11-29T04:46:36.098Z,920.32
2016-11-29T04:47:04.943Z,920.33
2016-11-29T04:47:33.695Z,920.34
2016-11-29T04:48:01.681Z,920.34
2016-11-29T04:48:29.758Z,920.33
2016-11-29T04:48:57.732Z,920.31
2016-11-29T04:49:25.718Z,920.32
2016-11-29T04:49:53.506Z,920.33
2016-11-29T04:50:22.364Z,920.32
2016-11-29T04:50:51.230Z,920.33
2016-11-29T04:51:20.069Z,920.3
2016-11-29T04:51:48.140Z,920.34
2016-11-29T04:52:16.117Z,920.4
2016-11-29T04:52:43.997Z,920.36
2016-11-29T04:53:12.087Z,920.11
2016-11-29T04:53:40.058Z,920.27
2016-11-29T04:54:08.124Z,920.37
2016-11-29T04:54:36.021Z,920.34
2016-11-29T04:55:07.195Z,920.33
2016-11-29T04:55:37.047Z,920.27
2016-11-29T04:56:05.890Z,920.28
2016-11-29T04:56:34.559Z,920.38
2016-11-29T04:57:04.101Z,920.29
2016-11-29T04:57:33.642Z,920.33
2016-11-29T04:58:01.722Z,920.33
2016-11-29T04:58:29.689Z,920.32
2016-11-29T04:58:58.553Z,920.28
2016-11-29T04:59:26.434Z,920.32
2016-11-29T04:59:57.029Z,920.27
2016-11-29T05:00:25.107Z,920.28
2016-11-29T05:00:53.014Z,920.3
2016-11-29T05:01:20.891Z,920.22
2016-11-29T05:01:48.782Z,920.29
2016-11-29T05:02:16.867Z,920.3
2016-11-29T05:02:44.741Z,920.18
2016-11-29T05:03:14.292Z,920.27
2016-11-29T05:03:42.362Z,920.26
2016-11-29T05:04:10.427Z,920.22
2016-11-29T05:04:38.494Z,920.24
2016-11-29T05:05:08.892Z,920.16
2016-11-29T05:05:37.583Z,920.17
2016-11-29T05:06:07.991Z,920.12
2016-11-29T05:06:37.526Z,920.18
2016-11-29T05:07:06.374Z,920.03
2016-11-29T05:07:35.133Z,920.13
2016-11-29T05:08:03.201Z,920.12
2016-11-29T05:08:31.168Z,920.14
2016-11-29T05:08:59.839Z,920.06
2016-11-29T05:09:28.594Z,920.21
2016-11-29T05:09:56.733Z,920.19
2016-11-29T05:10:24.809Z,920.11
2016-11-29T05:10:52.696Z,920.09
2016-11-29T05:11:20.667Z,920.11
2016-11-29T05:11:48.745Z,920.19
2016-11-29T05:12:16.636Z,920.15
2016-11-29T05:12:45.388Z,920.18
2016-11-29T05:13:13.284Z,920.18
2016-11-29T05:13:42.036Z,920.06
2016-11-29T05:14:10.020Z,920.19
2016-11-29T05:14:38.093Z,920.12
2016-11-29T05:15:06.946Z,920.08
2016-11-29T05:15:35.023Z,920.1
2016-11-29T05:16:41.296Z,920.13
2016-11-29T05:17:10.055Z,920.11
2016-11-29T05:17:38.123Z,920.09
2016-11-29T05:18:06.982Z,920.08
2016-11-29T05:18:34.872Z,920.03
2016-11-29T05:19:02.944Z,920.08
2016-11-29T05:19:32.578Z,920.05
2016-11-29T05:20:00.855Z,920.04
2016-11-29T05:20:29.609Z,919.99
2016-11-29T05:20:58.362Z,920
2016-11-29T05:21:28.768Z,920.05
2016-11-29T05:21:56.748Z,920.04
2016-11-29T05:22:25.587Z,920.07
2016-11-29T05:22:53.480Z,920.06
2016-11-29T05:23:21.553Z,920.08
2016-11-29T05:23:52.638Z,920.08
2016-11-29T05:24:21.606Z,920.09
2016-11-29T05:24:51.341Z,920.07
2016-11-29T05:25:20.185Z,920.09
2016-11-29T05:25:49.623Z,920.08
2016-11-29T05:26:17.614Z,920.08
2016-11-29T05:26:46.469Z,920.09
2016-11-29T05:27:15.311Z,920.11
2016-11-29T05:27:44.943Z,920.06
2016-11-29T05:28:13.018Z,920.07
2016-11-29T05:28:42.641Z,920.11
2016-11-29T05:29:10.621Z,920.1
2016-11-29T05:29:40.391Z,920.07
2016-11-29T05:30:11.511Z,920.07
2016-11-29T05:30:39.594Z,920.07
2016-11-29T05:31:07.562Z,920.08
2016-11-29T05:31:35.553Z,920.11
2016-11-29T05:32:06.845Z,920.04
2016-11-29T05:32:34.732Z,920.06
2016-11-29T05:33:02.805Z,920.05
2016-11-29T05:33:30.866Z,920.07
2016-11-29T05:33:58.861Z,920.1
2016-11-29T05:34:26.862Z,920.06
2016-11-29T05:34:54.836Z,920.1
2016-11-29T05:35:23.586Z,920.07
2016-11-29T05:35:52.432Z,920.11
2016-11-29T05:36:21.101Z,920.08
2016-11-29T05:36:49.876Z,920.1
2016-11-29T05:37:17.855Z,920.11
2016-11-29T05:37:45.932Z,920.11
2016-11-29T05:38:14.780Z,920.09
2016-11-29T05:38:43.546Z,920.13
2016-11-29T05:39:11.521Z,920.09
2016-11-29T05:39:39.495Z,920.14
2016-11-29T05:40:07.625Z,920.12
2016-11-29T05:40:35.707Z,920.11
2016-11-29T05:41:04.361Z,920.07
2016-11-29T05:41:35.647Z,920.11
2016-11-29T05:42:03.544Z,920.18
2016-11-29T05:42:33.172Z,920.13
2016-11-29T05:43:01.931Z,920.17
2016-11-29T05:43:30.002Z,920.17
2016-11-29T05:43:58.668Z,920.13
2016-11-29T05:44:26.877Z,920.17
2016-11-29T05:44:56.407Z,920.18
2016-11-29T05:45:25.264Z,920.19
2016-11-29T05:45:53.246Z,920.07
2016-11-29T05:46:21.908Z,920.15
2016-11-29T05:46:49.794Z,920.13
2016-11-29T05:47:17.980Z,920.12
2016-11-29T05:47:46.831Z,920.08
2016-11-29T05:48:15.670Z,920.06
2016-11-29T05:48:43.854Z,920.09
2016-11-29T05:49:12.027Z,920.07
2016-11-29T05:49:40.005Z,920.02
2016-11-29T05:50:07.990Z,920.01
2016-11-29T05:50:37.523Z,919.99
2016-11-29T05:51:05.405Z,920.03
2016-11-29T05:51:33.474Z,920
2016-11-29T05:52:01.508Z,920
2016-11-29T05:52:29.473Z,919.98
2016-11-29T05:52:58.335Z,919.98
2016-11-29T05:53:26.313Z,919.98
2016-11-29T05:53:55.853Z,919.97
2016-11-29T05:54:23.930Z,920.05
2016-11-29T05:54:52.872Z,919.98
2016-11-29T05:55:20.869Z,920.02
2016-11-29T05:56:27.912Z,919.93
2016-11-29T05:56:56.575Z,919.93
2016-11-29T05:57:24.557Z,919.99
2016-11-29T05:57:55.797Z,919.95
2016-11-29T05:58:23.873Z,919.93
2016-11-29T05:58:51.766Z,920
2016-11-29T05:59:19.841Z,919.92
2016-11-29T05:59:47.932Z,919.93
2016-11-29T06:00:17.554Z,919.99
2016-11-29T06:00:47.091Z,919.95
2016-11-29T06:01:14.981Z,919.96
2016-11-29T06:01:42.866Z,919.98
2016-11-29T06:02:11.361Z,919.94
2016-11-29T06:02:39.440Z,919.99